Time;durP1;ratioP1;P1;durP2;ratioP2;P2;SDS_P1;SDS_P2;PMS_P1;PMS_P2;Temp;Humidity;BMP_temperature;BMP_pressure;BME280_temperature;BME280_humidity;BME280_pressure;Samples;Min_cycle;Max_cycle;Signal;HPM_P1;HPM_P2
2022/03/09 00:00:09;;;;;;;5.88;5.32;;;5.20;95.70;;;;;;4914849;29;20240;-62
2022/03/09 00:02:37;;;;;;;5.40;4.90;;;5.30;96.00;;;;;;4914231;29;20664;-62
2022/03/09 00:05:06;;;;;;;5.38;4.88;;;5.50;95.80;;;;;;4914769;29;20261;-63
2022/03/09 00:07:33;;;;;;;6.07;5.47;;;5.60;94.80;;;;;;4914494;29;20251;-62
2022/03/09 00:10:01;;;;;;;6.85;5.32;;;5.60;94.30;;;;;;4917921;29;20806;-62
2022/03/09 00:12:29;;;;;;;6.57;5.97;;;5.60;95.40;;;;;;4914396;29;20232;-62
2022/03/09 00:14:58;;;;;;;5.78;5.28;;;5.60;94.30;;;;;;4916768;29;20733;-62
2022/03/09 00:17:27;;;;;;;6.15;5.55;;;5.60;94.00;;;;;;4914568;29;20231;-62
2022/03/09 00:19:55;;;;;;;8.30;5.70;;;5.60;94.80;;;;;;4914422;29;20215;-62
2022/03/09 00:22:23;;;;;;;5.38;4.97;;;5.60;93.80;;;;;;4914276;29;20327;-61
2022/03/09 00:24:51;;;;;;;7.30;6.30;;;5.50;94.50;;;;;;4914678;29;20641;-62
2022/03/09 00:27:19;;;;;;;5.75;5.15;;;5.40;93.70;;;;;;4914456;29;20758;-61
2022/03/09 00:29:47;;;;;;;5.95;4.82;;;5.40;94.20;;;;;;4914400;29;20279;-62
2022/03/09 00:32:16;;;;;;;6.93;5.65;;;5.40;94.60;;;;;;4914430;29;20307;-62
2022/03/09 00:34:44;;;;;;;6.15;5.43;;;5.20;93.30;;;;;;4914217;29;20766;-62
2022/03/09 00:37:12;;;;;;;6.72;6.03;;;5.20;94.90;;;;;;4914611;29;20236;-61
2022/03/09 00:39:40;;;;;;;5.40;4.90;;;5.10;93.00;;;;;;4914346;29;20287;-61
2022/03/09 00:42:08;;;;;;;8.77;5.82;;;5.10;94.80;;;;;;4920607;29;20255;-60
2022/03/09 00:44:35;;;;;;;5.97;5.38;;;5.10;95.30;;;;;;4913394;29;20237;-62
2022/03/09 00:47:04;;;;;;;5.47;4.63;;;5.20;94.80;;;;;;4914214;29;20225;-61
2022/03/09 00:49:33;;;;;;;6.72;5.18;;;5.20;94.00;;;;;;4914364;29;20213;-60
2022/03/09 00:52:01;;;;;;;7.28;5.80;;;5.30;93.60;;;;;;4914123;29;20320;-61
2022/03/09 00:54:29;;;;;;;5.88;5.28;;;5.20;93.40;;;;;;4916411;29;20208;-62
2022/03/09 00:56:57;;;;;;;5.25;4.75;;;5.20;93.80;;;;;;4918347;29;20212;-60
2022/03/09 00:59:24;;;;;;;5.60;4.97;;;5.20;94.80;;;;;;4917995;29;20777;-61
2022/03/09 01:01:52;;;;;;;6.38;5.75;;;5.20;94.30;;;;;;4917967;29;20883;-62
2022/03/09 01:04:21;;;;;;;5.80;5.20;;;5.30;94.70;;;;;;4917512;29;20228;-59
2022/03/09 01:06:50;;;;;;;7.30;4.90;;;5.30;95.10;;;;;;4918125;29;20243;-61
2022/03/09 01:09:18;;;;;;;5.50;4.75;;;5.20;94.70;;;;;;4919450;29;20303;-61
2022/03/09 01:11:45;;;;;;;6.00;5.40;;;5.20;95.80;;;;;;4923251;29;20316;-61
2022/03/09 01:14:13;;;;;;;6.07;5.45;;;5.20;93.20;;;;;;4919411;29;20311;-60
2022/03/09 01:16:43;;;;;;;6.78;6.07;;;5.10;94.40;;;;;;4917208;29;20213;-61
2022/03/09 01:19:11;;;;;;;7.05;5.75;;;5.10;94.10;;;;;;4917388;29;20225;-61
2022/03/09 01:21:39;;;;;;;5.90;5.20;;;5.10;94.60;;;;;;4917111;29;20773;-61
2022/03/09 01:24:09;;;;;;;6.55;5.63;;;5.10;94.60;;;;;;4917298;29;20295;-60
2022/03/09 01:26:36;;;;;;;5.82;5.32;;;5.10;93.70;;;;;;4915930;29;20247;-61
2022/03/09 01:29:06;;;;;;;6.40;5.80;;;5.00;92.90;;;;;;4917626;29;20750;-61
2022/03/09 01:31:35;;;;;;;5.82;5.35;;;4.80;94.00;;;;;;4916036;29;20312;-60
2022/03/09 01:34:03;;;;;;;5.85;5.25;;;4.70;93.40;;;;;;4917492;29;20303;-60
2022/03/09 01:36:31;;;;;;;7.30;6.13;;;4.70;94.30;;;;;;4916960;29;20236;-61
2022/03/09 01:38:59;;;;;;;5.70;5.15;;;4.60;94.30;;;;;;4919820;29;20290;-61
2022/03/09 01:41:28;;;;;;;6.35;5.75;;;4.60;96.60;;;;;;4920182;29;20640;-60
2022/03/09 01:44:06;;;;;;;6.38;5.82;;;4.70;95.20;;;;;;4919586;29;20284;-61
2022/03/09 01:46:34;;;;;;;6.53;5.63;;;4.80;95.30;;;;;;4916839;29;20205;-62
2022/03/09 01:49:03;;;;;;;7.60;6.13;;;4.80;93.50;;;;;;4917176;29;20793;-62
2022/03/09 01:51:32;;;;;;;6.95;5.25;;;4.60;93.40;;;;;;4916996;29;20224;-63
2022/03/09 01:54:00;;;;;;;6.78;5.80;;;4.60;96.00;;;;;;4916620;29;20287;-62
2022/03/09 01:56:30;;;;;;;6.28;5.65;;;4.50;94.80;;;;;;4916545;29;20212;-61
2022/03/09 01:58:58;;;;;;;5.82;5.32;;;4.50;94.90;;;;;;4916588;29;21042;-62
2022/03/09 02:01:25;;;;;;;6.13;5.63;;;4.50;95.80;;;;;;4916797;29;20324;-61
2022/03/09 02:03:53;;;;;;;5.43;4.93;;;4.50;93.90;;;;;;4916294;29;20217;-61
2022/03/09 02:06:22;;;;;;;5.82;5.18;;;4.60;95.60;;;;;;4915748;29;20212;-62
2022/03/09 02:11:37;;;;;;;7.40;5.45;;;4.40;93.20;;;;;;4926653;29;20270;-61
2022/03/09 02:14:06;;;;;;;6.15;5.53;;;4.30;92.60;;;;;;4916211;29;20244;-61
2022/03/09 02:16:34;;;;;;;7.00;5.53;;;4.10;94.40;;;;;;4916629;29;20772;-60
2022/03/09 02:19:02;;;;;;;6.15;5.55;;;4.20;96.90;;;;;;4916462;29;20212;-61
2022/03/09 02:21:32;;;;;;;6.38;5.75;;;4.30;96.40;;;;;;4916355;29;20335;-61
2022/03/09 02:24:04;;;;;;;6.72;5.95;;;4.50;95.60;;;;;;4916309;29;20270;-61
2022/03/09 02:26:32;;;;;;;6.75;6.15;;;4.50;94.90;;;;;;4916347;29;20232;-60
2022/03/09 02:29:00;;;;;;;6.10;5.60;;;4.50;94.40;;;;;;4916129;29;20634;-60
2022/03/09 02:31:28;;;;;;;7.28;5.80;;;4.50;95.30;;;;;;4916133;29;20304;-61
2022/03/09 02:33:56;;;;;;;5.68;5.18;;;4.30;92.20;;;;;;4916355;29;20244;-61
2022/03/09 02:36:24;;;;;;;5.88;5.30;;;4.10;95.50;;;;;;4916498;29;20641;-61
2022/03/09 02:38:52;;;;;;;5.90;5.38;;;4.20;95.80;;;;;;4912323;29;20300;-61
2022/03/09 02:41:21;;;;;;;7.50;5.70;;;4.20;96.80;;;;;;4921136;29;20328;-61
2022/03/09 02:43:49;;;;;;;6.10;5.60;;;4.30;96.60;;;;;;4917769;29;20232;-62
2022/03/09 02:46:16;;;;;;;5.72;5.15;;;4.30;96.00;;;;;;4915971;29;20244;-62
2022/03/09 02:48:45;;;;;;;6.60;5.50;;;4.40;96.60;;;;;;4915691;29;20302;-62
2022/03/09 02:51:12;;;;;;;6.63;5.50;;;4.40;95.80;;;;;;4915831;29;20263;-61
2022/03/09 02:53:40;;;;;;;6.10;5.55;;;4.40;96.80;;;;;;4915828;29;20213;-61
2022/03/09 02:56:08;;;;;;;10.13;5.97;;;4.40;95.50;;;;;;4915913;29;20639;-62
2022/03/09 02:58:39;;;;;;;7.25;5.68;;;4.50;97.10;;;;;;4915688;29;20248;-62
2022/03/09 03:01:07;;;;;;;6.10;5.30;;;4.50;95.80;;;;;;4915809;29;20319;-61
2022/03/09 03:03:35;;;;;;;6.00;5.40;;;4.60;96.20;;;;;;4915451;29;20209;-62
2022/03/09 03:06:03;;;;;;;6.05;5.00;;;4.60;95.40;;;;;;4915748;29;20670;-62
2022/03/09 03:08:33;;;;;;;9.73;6.22;;;4.50;95.60;;;;;;4915531;29;20220;-62
2022/03/09 03:11:01;;;;;;;7.22;4.95;;;4.50;96.90;;;;;;4923371;29;20275;-62
2022/03/09 03:13:29;;;;;;;5.43;4.95;;;4.50;96.40;;;;;;4915297;29;20201;-62
2022/03/09 03:15:58;;;;;;;8.65;6.15;;;4.40;95.40;;;;;;4914983;29;20216;-62
2022/03/09 03:18:27;;;;;;;6.78;5.13;;;4.40;95.90;;;;;;4915733;29;20232;-61
2022/03/09 03:20:55;;;;;;;5.90;5.30;;;4.50;96.30;;;;;;4914735;29;20292;-62
2022/03/09 03:23:23;;;;;;;7.15;5.45;;;4.40;96.20;;;;;;4915457;29;20240;-62
2022/03/09 03:25:51;;;;;;;5.65;5.15;;;4.40;96.60;;;;;;4914868;29;20291;-63
2022/03/09 03:28:21;;;;;;;6.13;5.53;;;4.40;97.50;;;;;;4915459;29;20292;-62
2022/03/09 03:30:50;;;;;;;5.82;5.05;;;4.40;96.00;;;;;;4915069;29;20693;-61
2022/03/09 03:33:21;;;;;;;5.28;4.82;;;4.40;97.20;;;;;;4915020;29;20781;-62
2022/03/09 03:35:52;;;;;;;5.68;5.18;;;4.40;97.50;;;;;;4914910;29;20662;-62
2022/03/09 03:38:20;;;;;;;6.30;5.55;;;4.40;96.50;;;;;;4915368;29;20272;-61
2022/03/09 03:40:48;;;;;;;5.72;5.22;;;4.50;96.20;;;;;;4920835;29;20233;-62
2022/03/09 03:43:16;;;;;;;5.55;4.90;;;4.40;97.00;;;;;;4916801;29;20713;-62
2022/03/09 03:45:44;;;;;;;5.68;5.13;;;4.50;97.20;;;;;;4914800;29;20682;-62
2022/03/09 03:48:11;;;;;;;5.60;5.20;;;4.60;97.30;;;;;;4916287;29;20287;-62
2022/03/09 03:50:41;;;;;;;6.07;5.57;;;4.60;97.00;;;;;;4914761;29;20702;-61
2022/03/09 03:53:09;;;;;;;5.90;5.30;;;4.60;95.80;;;;;;4914862;29;20204;-61
2022/03/09 03:55:37;;;;;;;5.82;5.15;;;4.50;97.60;;;;;;4914916;29;20213;-61
2022/03/09 03:58:05;;;;;;;8.63;6.75;;;4.30;97.00;;;;;;4914291;29;20235;-61
2022/03/09 04:00:32;;;;;;;6.97;6.40;;;4.20;94.30;;;;;;4913494;29;20300;-60
2022/03/09 04:03:01;;;;;;;6.15;5.57;;;4.00;97.30;;;;;;4914775;29;20235;-61
2022/03/09 04:05:30;;;;;;;7.10;6.43;;;4.00;97.80;;;;;;4914726;29;20208;-60
2022/03/09 04:08:02;;;;;;;6.80;6.20;;;3.90;94.50;;;;;;4914964;29;20252;-62
2022/03/09 04:10:30;;;;;;;9.82;6.28;;;3.70;96.30;;;;;;4917356;29;20220;-61
2022/03/09 04:13:00;;;;;;;6.90;6.30;;;3.30;95.30;;;;;;4925013;29;20678;-61
2022/03/09 04:15:28;;;;;;;5.95;5.38;;;2.90;95.70;;;;;;4914329;29;20267;-60
2022/03/09 04:17:56;;;;;;;6.78;5.97;;;3.00;99.90;;;;;;4913741;29;20631;-61
2022/03/09 04:20:24;;;;;;;6.25;5.65;;;3.20;99.40;;;;;;4908491;29;20285;-62
2022/03/09 04:22:52;;;;;;;6.93;6.25;;;3.40;99.90;;;;;;4908363;29;20779;-61
2022/03/09 04:25:22;;;;;;;6.50;5.85;;;3.50;99.60;;;;;;4911523;29;20303;-62
2022/03/09 04:27:50;;;;;;;6.47;5.78;;;3.70;99.90;;;;;;4913539;29;20224;-61
2022/03/09 04:30:17;;;;;;;6.38;5.88;;;3.90;99.20;;;;;;4917897;29;20323;-61
2022/03/09 04:32:45;;;;;;;7.80;5.45;;;4.00;95.50;;;;;;4918340;29;20256;-61
2022/03/09 04:35:15;;;;;;;7.30;6.05;;;3.90;98.60;;;;;;4918340;29;20580;-61
2022/03/09 04:37:43;;;;;;;6.88;5.72;;;4.00;99.00;;;;;;4917854;29;20292;-61
2022/03/09 04:40:12;;;;;;;8.38;5.80;;;4.00;98.80;;;;;;4926211;29;20283;-62
2022/03/09 04:42:41;;;;;;;5.93;5.38;;;4.10;98.00;;;;;;4919866;29;20331;-61
2022/03/09 04:45:11;;;;;;;6.55;5.43;;;4.10;98.10;;;;;;4918682;29;20256;-61
2022/03/09 04:47:39;;;;;;;6.78;6.13;;;4.00;97.00;;;;;;4918371;29;20697;-60
2022/03/09 04:50:08;;;;;;;6.63;5.97;;;3.80;97.80;;;;;;4916842;29;20225;-62
2022/03/09 04:52:36;;;;;;;6.97;6.28;;;3.90;97.30;;;;;;4917773;29;20229;-61
2022/03/09 04:55:04;;;;;;;6.30;5.80;;;3.90;97.70;;;;;;4918281;29;20240;-61
2022/03/09 04:57:34;;;;;;;5.90;5.35;;;3.90;98.90;;;;;;4914362;29;20287;-61
2022/03/09 05:00:04;;;;;;;7.15;5.60;;;4.00;98.60;;;;;;4918093;29;20304;-62
2022/03/09 05:02:32;;;;;;;6.55;5.95;;;3.80;98.20;;;;;;4917336;29;20717;-62
2022/03/09 05:05:00;;;;;;;8.15;6.30;;;3.90;99.90;;;;;;4918072;29;20204;-62
2022/03/09 05:07:28;;;;;;;6.45;5.85;;;3.80;99.30;;;;;;4917680;29;20288;-60
2022/03/09 05:09:55;;;;;;;6.05;5.43;;;3.90;98.00;;;;;;4920444;29;20248;-61
2022/03/09 05:12:23;;;;;;;7.93;5.60;;;3.90;98.40;;;;;;4925415;29;20320;-59
2022/03/09 05:14:51;;;;;;;6.88;6.03;;;3.60;97.80;;;;;;4917921;29;20288;-61
2022/03/09 05:17:21;;;;;;;7.90;5.80;;;3.40;94.80;;;;;;4917612;29;20228;-61
2022/03/09 05:19:49;;;;;;;6.00;5.40;;;3.20;99.00;;;;;;4917681;29;20295;-61
2022/03/09 05:22:17;;;;;;;5.75;5.18;;;3.00;98.50;;;;;;4916213;29;20242;-60
2022/03/09 05:24:52;;;;;;;5.55;5.05;;;2.90;99.00;;;;;;4917769;29;20216;-61
2022/03/09 05:27:20;;;;;;;8.43;6.10;;;2.90;99.90;;;;;;4917481;29;20219;-60
2022/03/09 05:29:48;;;;;;;7.45;6.65;;;2.80;96.70;;;;;;4916817;29;20228;-60
2022/03/09 05:32:16;;;;;;;7.28;6.35;;;2.60;99.20;;;;;;4916839;29;20288;-61
2022/03/09 05:34:46;;;;;;;8.10;6.88;;;2.50;98.00;;;;;;4917465;29;20236;-61
2022/03/09 05:37:14;;;;;;;6.47;5.88;;;2.50;99.90;;;;;;4917529;29;20243;-61
2022/03/09 05:39:42;;;;;;;6.43;5.85;;;2.40;99.90;;;;;;4920146;29;20235;-60
2022/03/09 05:42:10;;;;;;;6.18;5.47;;;2.40;99.90;;;;;;4921820;29;20319;-60
2022/03/09 05:44:38;;;;;;;8.27;6.25;;;2.50;99.90;;;;;;4917746;29;20240;-60
2022/03/09 05:47:07;;;;;;;8.40;5.00;;;2.40;99.90;;;;;;4917147;29;20213;-61
2022/03/09 05:49:35;;;;;;;6.55;5.95;;;2.50;99.90;;;;;;4916971;29;20240;-61
2022/03/09 05:52:05;;;;;;;7.28;6.55;;;2.60;98.90;;;;;;4916528;29;20307;-61
2022/03/09 05:54:32;;;;;;;6.63;5.90;;;2.70;99.90;;;;;;4911233;29;20235;-62
2022/03/09 05:57:00;;;;;;;7.40;6.07;;;2.60;99.90;;;;;;4910789;29;20288;-61
2022/03/09 05:59:28;;;;;;;6.28;5.68;;;2.60;99.30;;;;;;4915252;29;20212;-60
2022/03/09 06:01:56;;;;;;;8.27;6.50;;;2.30;97.90;;;;;;4910699;29;20614;-61
2022/03/09 06:04:24;;;;;;;7.10;6.50;;;2.40;99.80;;;;;;4910736;29;20219;-61
2022/03/09 06:06:52;;;;;;;7.15;6.45;;;2.40;99.50;;;;;;4911104;29;20287;-62
2022/03/09 06:09:21;;;;;;;6.43;5.82;;;2.50;99.90;;;;;;4915083;29;20239;-61
2022/03/09 06:11:49;;;;;;;7.07;5.57;;;2.60;99.90;;;;;;4916180;29;20236;-62
2022/03/09 06:14:17;;;;;;;6.90;6.20;;;2.70;99.90;;;;;;4916531;29;20225;-62
2022/03/09 06:16:47;;;;;;;6.10;5.30;;;2.80;99.90;;;;;;4916065;29;20231;-62
2022/03/09 06:19:15;;;;;;;7.40;6.32;;;2.90;99.90;;;;;;4910701;29;20205;-62
2022/03/09 06:21:43;;;;;;;6.40;5.80;;;3.00;99.90;;;;;;4909693;29;20320;-61
2022/03/09 06:24:16;;;;;;;7.18;6.47;;;3.10;99.90;;;;;;4902141;29;20682;-61
2022/03/09 06:26:46;;;;;;;10.15;7.20;;;3.10;97.60;;;;;;4907831;29;20305;-61
2022/03/09 06:29:14;;;;;;;7.50;5.60;;;3.00;99.90;;;;;;4906993;29;20280;-61
2022/03/09 06:31:43;;;;;;;9.18;6.45;;;3.10;98.90;;;;;;4906580;29;20654;-61
2022/03/09 06:34:11;;;;;;;7.15;6.45;;;3.00;99.00;;;;;;4903321;29;20216;-61
2022/03/09 06:36:43;;;;;;;6.72;6.03;;;2.90;96.80;;;;;;4904782;29;20229;-61
2022/03/09 06:39:12;;;;;;;7.20;6.53;;;2.60;97.70;;;;;;4903438;29;20292;-61
2022/03/09 06:41:41;;;;;;;9.27;6.10;;;2.50;97.90;;;;;;4906797;29;20277;-60
2022/03/09 06:44:10;;;;;;;6.75;5.40;;;2.30;99.90;;;;;;4902753;29;20725;-62
2022/03/09 06:46:38;;;;;;;7.30;6.03;;;2.50;99.90;;;;;;4904424;29;20212;-60
2022/03/09 06:49:06;;;;;;;6.32;5.80;;;2.80;99.90;;;;;;4903333;29;20208;-60
2022/03/09 06:51:34;;;;;;;7.68;7.07;;;3.20;99.90;;;;;;4900703;29;20235;-61
2022/03/09 06:54:02;;;;;;;9.25;6.70;;;3.20;97.90;;;;;;4900786;29;20232;-62
2022/03/09 06:56:30;;;;;;;8.68;7.78;;;3.00;97.50;;;;;;4903972;29;20247;-61
2022/03/09 06:58:58;;;;;;;11.55;7.53;;;2.90;98.20;;;;;;4902850;29;20642;-62
2022/03/09 07:01:27;;;;;;;8.52;7.70;;;2.70;98.90;;;;;;4912205;29;20636;-64
2022/03/09 07:03:55;;;;;;;7.05;6.10;;;2.60;98.90;;;;;;4915799;29;20212;-61
2022/03/09 07:06:23;;;;;;;10.00;8.90;;;2.60;98.60;;;;;;4908830;29;20295;-62
2022/03/09 07:08:51;;;;;;;8.23;7.10;;;2.60;99.30;;;;;;4916082;29;20216;-61
2022/03/09 07:11:19;;;;;;;7.78;6.75;;;2.70;99.90;;;;;;4911436;29;20236;-63
2022/03/09 07:13:47;;;;;;;10.15;8.57;;;2.80;98.90;;;;;;4911106;29;20327;-63
2022/03/09 07:16:15;;;;;;;7.95;7.18;;;2.80;98.90;;;;;;4909970;29;20233;-62
2022/03/09 07:18:44;;;;;;;9.00;8.15;;;3.00;99.90;;;;;;4913032;29;20215;-61
2022/03/09 07:21:13;;;;;;;10.15;9.15;;;3.00;98.40;;;;;;4903615;29;20789;-62
2022/03/09 07:23:41;;;;;;;8.00;7.20;;;3.20;98.60;;;;;;4896917;29;20211;-61
2022/03/09 07:26:09;;;;;;;9.15;8.05;;;3.30;98.20;;;;;;4906227;29;20296;-61
2022/03/09 07:28:37;;;;;;;8.85;7.95;;;3.30;97.80;;;;;;4909919;29;20303;-62
2022/03/09 07:31:05;;;;;;;9.18;7.88;;;3.30;97.90;;;;;;4910027;29;20252;-61
2022/03/09 07:33:33;;;;;;;8.57;7.72;;;3.40;98.30;;;;;;4909544;29;20592;-61
2022/03/09 07:36:03;;;;;;;8.07;7.28;;;3.60;97.30;;;;;;4912891;29;20295;-61
2022/03/09 07:38:33;;;;;;;9.95;7.93;;;3.60;97.00;;;;;;4916462;29;20311;-62
2022/03/09 07:41:01;;;;;;;9.98;7.88;;;3.70;97.10;;;;;;4918057;29;20212;-61
2022/03/09 07:43:29;;;;;;;8.98;8.02;;;3.80;96.70;;;;;;4912919;29;20293;-61
2022/03/09 07:45:56;;;;;;;10.02;8.52;;;4.00;96.50;;;;;;4910037;29;20622;-61
2022/03/09 07:48:24;;;;;;;9.23;8.32;;;4.10;96.30;;;;;;4909549;29;20237;-62
2022/03/09 07:50:57;;;;;;;7.95;7.22;;;4.30;96.50;;;;;;4910004;29;20230;-61
2022/03/09 07:53:27;;;;;;;9.90;7.80;;;4.50;96.60;;;;;;4907978;29;20811;-62
2022/03/09 07:55:55;;;;;;;8.40;7.50;;;4.70;95.60;;;;;;4903556;29;20660;-61
2022/03/09 07:58:23;;;;;;;8.25;7.45;;;4.70;95.00;;;;;;4904980;29;20239;-61
2022/03/09 08:00:50;;;;;;;9.05;7.88;;;4.80;94.70;;;;;;4907741;29;20295;-61
2022/03/09 08:03:18;;;;;;;10.90;7.80;;;4.90;94.80;;;;;;4913371;29;20204;-61
2022/03/09 08:05:57;;;;;;;11.85;7.68;;;5.00;94.80;;;;;;4913664;29;20212;-62
2022/03/09 08:08:26;;;;;;;13.15;8.30;;;5.00;94.40;;;;;;4909860;29;20284;-63
2022/03/09 08:10:54;;;;;;;8.90;7.30;;;5.20;94.90;;;;;;4910778;29;20209;-62
2022/03/09 08:13:22;;;;;;;9.85;8.82;;;5.30;94.80;;;;;;4913862;29;20624;-63
2022/03/09 08:15:50;;;;;;;9.40;7.93;;;5.40;94.90;;;;;;4909676;29;20236;-62
2022/03/09 08:18:18;;;;;;;11.27;8.77;;;5.50;94.20;;;;;;4908615;29;20272;-62
2022/03/09 08:20:46;;;;;;;8.48;7.68;;;5.60;93.80;;;;;;4908244;29;20295;-61
2022/03/09 08:23:14;;;;;;;9.00;8.02;;;5.70;94.00;;;;;;4890592;29;20272;-61
2022/03/09 08:25:43;;;;;;;8.60;7.80;;;5.80;93.80;;;;;;4891178;29;20297;-61
2022/03/09 08:28:13;;;;;;;10.35;8.38;;;6.00;93.80;;;;;;4890893;29;20634;-61
2022/03/09 08:30:41;;;;;;;11.90;7.90;;;6.40;93.40;;;;;;4895813;29;20319;-61
2022/03/09 08:33:09;;;;;;;10.98;8.57;;;6.50;92.70;;;;;;4893349;29;20231;-61
2022/03/09 08:35:38;;;;;;;9.02;7.88;;;6.60;92.50;;;;;;4890992;29;20241;-62
2022/03/09 08:38:06;;;;;;;12.60;8.50;;;6.80;92.30;;;;;;4890309;29;21130;-62
2022/03/09 08:40:34;;;;;;;10.27;8.65;;;6.90;91.80;;;;;;4887267;29;20346;-62
2022/03/09 08:43:03;;;;;;;15.05;8.27;;;7.00;92.10;;;;;;4890116;29;20308;-62
2022/03/09 08:45:31;;;;;;;14.23;9.52;;;7.20;91.50;;;;;;4889726;29;20213;-62
2022/03/09 08:47:59;;;;;;;13.73;7.78;;;7.50;91.30;;;;;;4890499;29;20675;-62
2022/03/09 08:50:27;;;;;;;9.57;7.78;;;7.70;90.20;;;;;;4890088;29;20688;-62
2022/03/09 08:53:03;;;;;;;10.10;7.25;;;7.90;90.30;;;;;;4889814;29;20228;-62
2022/03/09 08:55:31;;;;;;;9.80;7.85;;;8.20;89.30;;;;;;4890167;29;20233;-62
2022/03/09 08:58:00;;;;;;;11.10;7.57;;;8.40;87.90;;;;;;4891106;29;20219;-62
2022/03/09 09:00:29;;;;;;;8.63;7.30;;;8.50;87.60;;;;;;4894092;29;20241;-62
2022/03/09 09:02:57;;;;;;;10.93;7.65;;;8.70;88.20;;;;;;4888183;29;20284;-62
2022/03/09 09:05:26;;;;;;;10.65;8.50;;;8.60;87.50;;;;;;4890541;29;20210;-61
2022/03/09 09:07:54;;;;;;;11.10;8.43;;;8.70;86.70;;;;;;4890212;29;20292;-60
2022/03/09 09:10:29;;;;;;;8.80;7.00;;;8.80;85.90;;;;;;4890455;29;20205;-61
2022/03/09 09:12:58;;;;;;;16.23;9.05;;;8.90;85.80;;;;;;4889979;29;20783;-61
2022/03/09 09:15:28;;;;;;;8.38;7.60;;;9.20;85.20;;;;;;4892524;29;20213;-61
2022/03/09 09:18:02;;;;;;;7.93;7.13;;;9.70;83.60;;;;;;4893723;29;20214;-61
2022/03/09 09:20:48;;;;;;;9.70;8.70;;;10.10;82.60;;;;;;4893813;29;20960;-61
2022/03/09 09:23:17;;;;;;;9.65;8.73;;;10.30;80.70;;;;;;4912140;29;20754;-61
2022/03/09 09:25:45;;;;;;;7.72;6.90;;;10.70;79.90;;;;;;4913249;29;20293;-61
2022/03/09 09:28:14;;;;;;;8.50;7.60;;;10.90;78.20;;;;;;4919120;29;20254;-61
2022/03/09 09:30:42;;;;;;;9.50;8.00;;;11.00;78.50;;;;;;4913633;29;20313;-61
2022/03/09 09:33:11;;;;;;;10.98;7.68;;;11.40;77.80;;;;;;4911387;29;20224;-61
2022/03/09 09:35:39;;;;;;;9.20;8.30;;;11.50;76.30;;;;;;4911178;29;20293;-61
2022/03/09 09:38:10;;;;;;;10.27;8.55;;;11.60;76.20;;;;;;4912469;29;21085;-61
2022/03/09 09:40:43;;;;;;;9.48;7.20;;;11.80;74.40;;;;;;4914147;29;20295;-61
2022/03/09 09:43:12;;;;;;;8.75;7.85;;;12.10;73.70;;;;;;4911113;29;20660;-61
2022/03/09 09:45:41;;;;;;;8.63;7.63;;;12.50;72.80;;;;;;4905950;29;20280;-62
2022/03/09 09:48:12;;;;;;;10.35;8.95;;;12.80;71.80;;;;;;4912046;29;20307;-62
2022/03/09 09:50:41;;;;;;;10.63;7.43;;;12.80;71.90;;;;;;4911805;29;20243;-62
2022/03/09 09:53:12;;;;;;;7.57;6.78;;;12.40;70.80;;;;;;4911566;29;20339;-61
2022/03/09 09:55:41;;;;;;;7.72;7.05;;;12.20;72.70;;;;;;4912063;29;20209;-62
2022/03/09 09:58:09;;;;;;;8.70;7.80;;;12.60;70.30;;;;;;4915957;29;20299;-61
2022/03/09 10:00:37;;;;;;;8.05;7.32;;;12.50;71.80;;;;;;4911121;29;20660;-61
2022/03/09 10:03:06;;;;;;;9.18;7.35;;;12.60;69.40;;;;;;4911645;29;20224;-62
2022/03/09 10:05:36;;;;;;;8.20;6.97;;;12.80;69.70;;;;;;4911588;29;20639;-61
2022/03/09 10:08:18;;;;;;;9.07;8.18;;;13.00;69.40;;;;;;4911489;29;20283;-61
2022/03/09 10:10:59;;;;;;;7.30;6.60;;;13.30;69.00;;;;;;4917255;29;20207;-61
2022/03/09 10:13:29;;;;;;;7.45;6.82;;;13.70;68.00;;;;;;4908168;29;20323;-61
2022/03/09 10:16:15;;;;;;;8.48;7.53;;;13.60;66.60;;;;;;4907943;29;20712;-61
2022/03/09 10:18:49;;;;;;;8.40;7.63;;;12.90;66.90;;;;;;4909454;29;20263;-61
2022/03/09 10:21:20;;;;;;;9.20;8.30;;;12.90;66.60;;;;;;4910818;29;20268;-61
2022/03/09 10:23:53;;;;;;;7.63;6.93;;;13.00;67.00;;;;;;4916669;29;20240;-62
2022/03/09 10:26:24;;;;;;;7.38;6.68;;;13.10;66.10;;;;;;4910575;29;20219;-61
2022/03/09 10:28:56;;;;;;;7.82;7.07;;;13.10;65.70;;;;;;4911216;29;20239;-61
2022/03/09 10:31:35;;;;;;;8.00;7.18;;;13.10;66.50;;;;;;4910992;29;20320;-61
2022/03/09 10:34:09;;;;;;;8.30;7.50;;;13.00;64.80;;;;;;4910663;29;20252;-61
2022/03/09 10:36:52;;;;;;;8.77;7.80;;;12.70;67.00;;;;;;4908723;29;20658;-61
2022/03/09 10:39:20;;;;;;;7.60;7.00;;;13.30;66.40;;;;;;4910973;29;20300;-61
2022/03/09 10:41:48;;;;;;;7.35;6.60;;;13.70;65.90;;;;;;4916274;29;20297;-61
2022/03/09 10:44:16;;;;;;;10.80;7.25;;;13.90;67.20;;;;;;4913186;29;20291;-61
2022/03/09 10:46:46;;;;;;;9.15;7.65;;;14.40;65.30;;;;;;4910786;29;20232;-61
2022/03/09 10:49:19;;;;;;;8.43;7.20;;;14.30;64.50;;;;;;4911043;29;20261;-61
2022/03/09 10:51:50;;;;;;;8.15;7.43;;;14.20;64.00;;;;;;4919818;29;20316;-61
2022/03/09 10:54:23;;;;;;;8.35;7.47;;;14.50;63.90;;;;;;4910203;29;20225;-61
2022/03/09 10:57:02;;;;;;;8.30;7.40;;;14.00;63.80;;;;;;4910651;29;20291;-61
2022/03/09 10:59:43;;;;;;;8.63;7.35;;;14.00;64.40;;;;;;4905923;29;20208;-61
2022/03/09 11:02:11;;;;;;;8.48;7.57;;;14.50;64.40;;;;;;4910311;29;20231;-61
2022/03/09 11:04:40;;;;;;;8.43;7.50;;;14.20;63.10;;;;;;4910778;29;20201;-61
2022/03/09 11:07:10;;;;;;;7.28;6.45;;;14.30;63.10;;;;;;4908893;29;20204;-61
2022/03/09 11:09:38;;;;;;;7.75;6.95;;;14.50;64.30;;;;;;4910279;29;20239;-61
2022/03/09 11:12:06;;;;;;;8.55;7.50;;;14.80;63.00;;;;;;4914738;29;20239;-61
2022/03/09 11:14:35;;;;;;;9.00;7.53;;;15.20;62.10;;;;;;4912890;29;20756;-61
2022/03/09 11:17:03;;;;;;;8.43;7.72;;;15.20;62.70;;;;;;4913141;29;20204;-62
2022/03/09 11:19:31;;;;;;;8.68;7.88;;;15.20;62.80;;;;;;4916575;29;20749;-62
2022/03/09 11:21:59;;;;;;;9.60;8.60;;;15.50;63.30;;;;;;4910127;29;20275;-62
2022/03/09 11:24:33;;;;;;;9.32;8.35;;;15.80;61.60;;;;;;4908712;29;20205;-61
2022/03/09 11:27:04;;;;;;;10.90;9.90;;;16.20;61.60;;;;;;4908365;29;20215;-61
2022/03/09 11:29:35;;;;;;;8.23;7.43;;;16.60;60.50;;;;;;4901442;29;20715;-61
2022/03/09 11:32:04;;;;;;;8.45;7.75;;;16.70;59.70;;;;;;4898135;29;20221;-60
2022/03/09 11:34:38;;;;;;;8.75;7.85;;;16.50;60.20;;;;;;4896846;29;20308;-61
2022/03/09 11:37:09;;;;;;;11.48;8.65;;;15.90;59.40;;;;;;4901771;29;20308;-61
2022/03/09 11:39:39;;;;;;;8.98;8.18;;;15.50;61.30;;;;;;4901611;29;20224;-61
2022/03/09 11:42:34;;;;;;;9.60;8.60;;;15.90;60.90;;;;;;4904298;29;20318;-61
2022/03/09 11:45:42;;;;;;;8.63;7.70;;;16.40;59.20;;;;;;4903728;29;20249;-61
2022/03/09 11:48:14;;;;;;;10.38;8.60;;;15.90;59.50;;;;;;4900516;29;20201;-61
2022/03/09 11:51:12;;;;;;;9.00;8.20;;;16.20;59.00;;;;;;4903244;29;20902;-63
2022/03/09 11:53:44;;;;;;;10.10;8.43;;;16.70;58.50;;;;;;4900304;29;20728;-62
2022/03/09 11:56:35;;;;;;;11.35;9.07;;;16.70;58.40;;;;;;4910430;29;20299;-62
2022/03/09 11:59:14;;;;;;;9.30;8.35;;;16.70;58.00;;;;;;4909635;29;20689;-61
2022/03/09 12:02:11;;;;;;;11.65;8.73;;;16.70;58.70;;;;;;4904751;29;20303;-62
2022/03/09 12:04:50;;;;;;;9.38;8.48;;;17.10;58.30;;;;;;4909673;29;20662;-61
2022/03/09 12:07:46;;;;;;;10.77;8.90;;;17.10;56.90;;;;;;4908427;29;20211;-62
2022/03/09 12:10:14;;;;;;;8.98;8.05;;;17.40;56.50;;;;;;4902582;29;20225;-61
2022/03/09 12:13:13;;;;;;;9.45;8.55;;;17.80;57.00;;;;;;4908398;29;20283;-62
2022/03/09 12:16:05;;;;;;;10.13;8.73;;;17.90;57.00;;;;;;4907512;29;20697;-62
2022/03/09 12:18:36;;;;;;;10.10;9.10;;;18.30;55.60;;;;;;4906267;29;20777;-62
2022/03/09 12:21:05;;;;;;;9.52;8.52;;;17.80;55.30;;;;;;4909455;29;20208;-62
2022/03/09 12:23:33;;;;;;;10.95;8.88;;;17.60;55.40;;;;;;4909529;29;20236;-62
2022/03/09 12:26:02;;;;;;;12.38;8.90;;;18.30;55.10;;;;;;4910172;29;20311;-62
2022/03/09 12:28:47;;;;;;;9.00;8.20;;;18.70;54.60;;;;;;4909345;29;20243;-62
2022/03/09 12:31:20;;;;;;;11.85;9.60;;;19.00;54.60;;;;;;4909725;29;20259;-62
2022/03/09 12:33:54;;;;;;;10.90;9.60;;;18.20;54.10;;;;;;4904614;29;20235;-63
2022/03/09 12:36:24;;;;;;;9.77;8.85;;;18.30;54.60;;;;;;4909502;29;20239;-62
2022/03/09 12:39:01;;;;;;;10.30;9.23;;;17.90;54.40;;;;;;4905899;29;20287;-62
2022/03/09 12:41:31;;;;;;;12.10;9.82;;;18.30;55.10;;;;;;4916343;29;20230;-62
2022/03/09 12:44:02;;;;;;;9.10;8.20;;;18.40;55.00;;;;;;4914623;29;20291;-62
2022/03/09 12:46:32;;;;;;;10.50;8.75;;;18.70;54.70;;;;;;4911936;29;20216;-62
2022/03/09 12:49:22;;;;;;;11.07;10.05;;;18.80;54.50;;;;;;4904235;29;20200;-62
2022/03/09 12:51:51;;;;;;;10.02;9.02;;;18.60;54.30;;;;;;4912717;29;20757;-62
2022/03/09 12:54:46;;;;;;;11.10;10.02;;;18.60;54.50;;;;;;4912970;29;20254;-62
2022/03/09 12:57:23;;;;;;;11.35;10.18;;;18.20;53.40;;;;;;4913409;29;20208;-62
2022/03/09 12:59:59;;;;;;;12.10;10.05;;;18.60;53.50;;;;;;4912488;29;20615;-63
2022/03/09 13:02:41;;;;;;;12.32;9.75;;;18.80;53.90;;;;;;4912456;29;20270;-62
2022/03/09 13:05:11;;;;;;;10.32;9.32;;;19.40;53.40;;;;;;4912847;29;20283;-61
2022/03/09 13:07:39;;;;;;;10.48;9.48;;;19.60;53.80;;;;;;4916504;29;20212;-62
2022/03/09 13:10:14;;;;;;;10.25;9.25;;;19.70;52.90;;;;;;4904242;29;20366;-61